sensor_id;sensor_type;location;lat;lon;timestamp;temperature;humidity
19110;DHT22;9687;50.836;12.060;2023-03-14T00:02:10;13.40;99.90
19110;DHT22;9687;50.836;12.060;2023-03-14T00:04:39;13.40;99.90
19110;DHT22;9687;50.836;12.060;2023-03-14T00:07:06;13.40;99.90
19110;DHT22;9687;50.836;12.060;2023-03-14T00:09:34;13.30;99.90
19110;DHT22;9687;50.836;12.060;2023-03-14T00:12:01;13.30;99.90
19110;DHT22;9687;50.836;12.060;2023-03-14T00:14:29;13.30;99.90
19110;DHT22;9687;50.836;12.060;2023-03-14T00:16:58;13.20;99.90
19110;DHT22;9687;50.836;12.060;2023-03-14T00:19:25;13.20;99.90
19110;DHT22;9687;50.836;12.060;2023-03-14T00:21:54;13.20;99.90
19110;DHT22;9687;50.836;12.060;2023-03-14T00:24:21;13.10;99.90
19110;DHT22;9687;50.836;12.060;2023-03-14T00:26:48;13.10;99.90
19110;DHT22;9687;50.836;12.060;2023-03-14T00:29:16;13.10;99.90
19110;DHT22;9687;50.836;12.060;2023-03-14T00:31:43;13.10;99.90
19110;DHT22;9687;50.836;12.060;2023-03-14T00:34:10;13.10;99.90
19110;DHT22;9687;50.836;12.060;2023-03-14T00:36:37;13.10;99.90
19110;DHT22;9687;50.836;12.060;2023-03-14T00:39:06;13.10;99.90
19110;DHT22;9687;50.836;12.060;2023-03-14T00:41:33;13.00;99.90
19110;DHT22;9687;50.836;12.060;2023-03-14T00:44:00;13.00;99.90
19110;DHT22;9687;50.836;12.060;2023-03-14T00:46:28;13.00;99.90
19110;DHT22;9687;50.836;12.060;2023-03-14T00:48:55;13.10;99.90
19110;DHT22;9687;50.836;12.060;2023-03-14T00:51:23;13.10;99.90
19110;DHT22;9687;50.836;12.060;2023-03-14T00:53:50;13.00;99.90
19110;DHT22;9687;50.836;12.060;2023-03-14T00:56:19;13.10;99.90
19110;DHT22;9687;50.836;12.060;2023-03-14T00:58:46;13.10;99.90
19110;DHT22;9687;50.836;12.060;2023-03-14T01:01:15;13.10;99.90
19110;DHT22;9687;50.836;12.060;2023-03-14T01:03:43;13.10;99.90
19110;DHT22;9687;50.836;12.060;2023-03-14T01:06:11;13.10;99.90
19110;DHT22;9687;50.836;12.060;2023-03-14T01:08:39;13.10;99.90
19110;DHT22;9687;50.836;12.060;2023-03-14T01:11:07;13.10;99.90
19110;DHT22;9687;50.836;12.060;2023-03-14T01:13:36;13.10;99.90
19110;DHT22;9687;50.836;12.060;2023-03-14T01:16:04;13.10;99.90
19110;DHT22;9687;50.836;12.060;2023-03-14T01:18:32;13.10;99.90
19110;DHT22;9687;50.836;12.060;2023-03-14T01:21:00;13.10;99.90
19110;DHT22;9687;50.836;12.060;2023-03-14T01:23:28;13.10;99.90
19110;DHT22;9687;50.836;12.060;2023-03-14T01:25:55;13.10;99.90
19110;DHT22;9687;50.836;12.060;2023-03-14T01:28:22;13.10;99.90
19110;DHT22;9687;50.836;12.060;2023-03-14T01:30:51;13.10;99.90
19110;DHT22;9687;50.836;12.060;2023-03-14T01:33:18;13.10;99.90
19110;DHT22;9687;50.836;12.060;2023-03-14T01:35:45;13.10;99.90
19110;DHT22;9687;50.836;12.060;2023-03-14T01:38:12;13.10;99.90
19110;DHT22;9687;50.836;12.060;2023-03-14T01:40:43;13.10;99.90
19110;DHT22;9687;50.836;12.060;2023-03-14T01:43:14;13.10;99.90
19110;DHT22;9687;50.836;12.060;2023-03-14T01:48:31;13.10;99.90
19110;DHT22;9687;50.836;12.060;2023-03-14T01:50:58;13.10;99.80
19110;DHT22;9687;50.836;12.060;2023-03-14T01:53:26;13.10;99.70
19110;DHT22;9687;50.836;12.060;2023-03-14T01:55:54;13.10;99.40
19110;DHT22;9687;50.836;12.060;2023-03-14T01:58:22;13.00;99.30
19110;DHT22;9687;50.836;12.060;2023-03-14T02:00:49;13.10;99.40
19110;DHT22;9687;50.836;12.060;2023-03-14T02:03:17;13.10;99.30
19110;DHT22;9687;50.836;12.060;2023-03-14T02:05:48;13.10;99.20
19110;DHT22;9687;50.836;12.060;2023-03-14T02:08:17;13.10;99.00
19110;DHT22;9687;50.836;12.060;2023-03-14T02:10:45;13.10;98.80
19110;DHT22;9687;50.836;12.060;2023-03-14T02:13:13;13.10;98.80
19110;DHT22;9687;50.836;12.060;2023-03-14T02:15:41;13.10;98.90
19110;DHT22;9687;50.836;12.060;2023-03-14T02:18:09;13.10;98.60
19110;DHT22;9687;50.836;12.060;2023-03-14T02:20:38;13.10;98.60
19110;DHT22;9687;50.836;12.060;2023-03-14T02:23:08;13.10;98.40
19110;DHT22;9687;50.836;12.060;2023-03-14T02:25:39;13.20;98.20
19110;DHT22;9687;50.836;12.060;2023-03-14T02:28:09;13.10;98.20
19110;DHT22;9687;50.836;12.060;2023-03-14T02:30:37;13.10;98.10
19110;DHT22;9687;50.836;12.060;2023-03-14T02:33:05;13.10;98.00
19110;DHT22;9687;50.836;12.060;2023-03-14T02:35:35;13.10;97.90
19110;DHT22;9687;50.836;12.060;2023-03-14T02:38:05;13.10;97.80
19110;DHT22;9687;50.836;12.060;2023-03-14T02:40:33;13.10;97.70
19110;DHT22;9687;50.836;12.060;2023-03-14T02:43:01;13.10;97.80
19110;DHT22;9687;50.836;12.060;2023-03-14T02:45:39;13.10;97.80
19110;DHT22;9687;50.836;12.060;2023-03-14T02:48:08;13.10;97.80
19110;DHT22;9687;50.836;12.060;2023-03-14T02:50:36;13.00;97.50
19110;DHT22;9687;50.836;12.060;2023-03-14T02:53:03;13.00;97.50
19110;DHT22;9687;50.836;12.060;2023-03-14T02:55:31;13.00;97.50
19110;DHT22;9687;50.836;12.060;2023-03-14T02:57:58;13.00;97.40
19110;DHT22;9687;50.836;12.060;2023-03-14T03:00:25;13.00;97.30
19110;DHT22;9687;50.836;12.060;2023-03-14T03:02:54;13.00;97.30
19110;DHT22;9687;50.836;12.060;2023-03-14T03:05:21;13.00;97.20
19110;DHT22;9687;50.836;12.060;2023-03-14T03:07:49;13.00;97.20
19110;DHT22;9687;50.836;12.060;2023-03-14T03:10:17;13.00;97.10
19110;DHT22;9687;50.836;12.060;2023-03-14T03:12:44;13.00;97.40
19110;DHT22;9687;50.836;12.060;2023-03-14T03:15:12;13.00;97.10
19110;DHT22;9687;50.836;12.060;2023-03-14T03:17:39;13.00;97.00
19110;DHT22;9687;50.836;12.060;2023-03-14T03:20:09;13.00;96.90
19110;DHT22;9687;50.836;12.060;2023-03-14T03:22:36;13.00;96.90
19110;DHT22;9687;50.836;12.060;2023-03-14T03:25:04;13.10;96.80
19110;DHT22;9687;50.836;12.060;2023-03-14T03:27:32;13.00;96.80
19110;DHT22;9687;50.836;12.060;2023-03-14T03:29:59;13.00;96.80
19110;DHT22;9687;50.836;12.060;2023-03-14T03:32:27;13.10;96.60
19110;DHT22;9687;50.836;12.060;2023-03-14T03:34:55;13.10;96.30
19110;DHT22;9687;50.836;12.060;2023-03-14T03:37:23;13.00;96.00
19110;DHT22;9687;50.836;12.060;2023-03-14T03:39:51;13.00;96.00
19110;DHT22;9687;50.836;12.060;2023-03-14T03:42:18;12.90;95.80
19110;DHT22;9687;50.836;12.060;2023-03-14T03:44:46;13.00;95.90
19110;DHT22;9687;50.836;12.060;2023-03-14T03:47:14;13.00;96.00
19110;DHT22;9687;50.836;12.060;2023-03-14T03:49:41;13.00;95.90
19110;DHT22;9687;50.836;12.060;2023-03-14T03:52:08;13.00;95.90
19110;DHT22;9687;50.836;12.060;2023-03-14T03:54:37;13.00;95.80
19110;DHT22;9687;50.836;12.060;2023-03-14T03:57:04;13.00;95.60
19110;DHT22;9687;50.836;12.060;2023-03-14T03:59:32;13.00;95.30
19110;DHT22;9687;50.836;12.060;2023-03-14T04:01:59;13.00;95.30
19110;DHT22;9687;50.836;12.060;2023-03-14T04:04:26;13.00;95.30
19110;DHT22;9687;50.836;12.060;2023-03-14T04:06:54;13.00;95.40
19110;DHT22;9687;50.836;12.060;2023-03-14T04:09:21;13.00;95.30
19110;DHT22;9687;50.836;12.060;2023-03-14T04:11:49;13.00;95.20
19110;DHT22;9687;50.836;12.060;2023-03-14T04:14:17;13.00;95.10
19110;DHT22;9687;50.836;12.060;2023-03-14T04:16:44;13.00;95.20
19110;DHT22;9687;50.836;12.060;2023-03-14T04:19:11;12.90;95.10
19110;DHT22;9687;50.836;12.060;2023-03-14T04:21:38;13.00;95.20
19110;DHT22;9687;50.836;12.060;2023-03-14T04:24:10;13.00;95.20
19110;DHT22;9687;50.836;12.060;2023-03-14T04:26:37;13.00;95.10
19110;DHT22;9687;50.836;12.060;2023-03-14T04:29:06;13.00;95.10
19110;DHT22;9687;50.836;12.060;2023-03-14T04:31:33;13.00;95.10
19110;DHT22;9687;50.836;12.060;2023-03-14T04:34:01;13.00;95.00
19110;DHT22;9687;50.836;12.060;2023-03-14T04:36:28;13.00;95.00
19110;DHT22;9687;50.836;12.060;2023-03-14T04:38:56;12.90;95.00
19110;DHT22;9687;50.836;12.060;2023-03-14T04:41:23;12.90;94.90
19110;DHT22;9687;50.836;12.060;2023-03-14T04:43:50;12.90;94.90
19110;DHT22;9687;50.836;12.060;2023-03-14T04:46:19;12.90;94.80
19110;DHT22;9687;50.836;12.060;2023-03-14T04:48:46;12.90;94.80
19110;DHT22;9687;50.836;12.060;2023-03-14T04:51:13;12.90;94.60
19110;DHT22;9687;50.836;12.060;2023-03-14T04:53:41;12.90;94.70
19110;DHT22;9687;50.836;12.060;2023-03-14T04:56:08;12.90;94.60
19110;DHT22;9687;50.836;12.060;2023-03-14T04:58:36;12.90;94.60
19110;DHT22;9687;50.836;12.060;2023-03-14T05:01:04;12.90;94.60
19110;DHT22;9687;50.836;12.060;2023-03-14T05:03:33;12.90;94.60
19110;DHT22;9687;50.836;12.060;2023-03-14T05:06:01;12.90;94.60
19110;DHT22;9687;50.836;12.060;2023-03-14T05:08:29;12.90;94.60
19110;DHT22;9687;50.836;12.060;2023-03-14T05:10:56;12.90;94.50
19110;DHT22;9687;50.836;12.060;2023-03-14T05:13:24;12.90;94.50
19110;DHT22;9687;50.836;12.060;2023-03-14T05:15:52;12.80;94.50
19110;DHT22;9687;50.836;12.060;2023-03-14T05:18:21;12.90;94.50
19110;DHT22;9687;50.836;12.060;2023-03-14T05:20:51;12.80;94.50
19110;DHT22;9687;50.836;12.060;2023-03-14T05:23:18;12.80;94.50
19110;DHT22;9687;50.836;12.060;2023-03-14T05:25:46;12.90;94.40
19110;DHT22;9687;50.836;12.060;2023-03-14T05:28:13;12.90;94.50
19110;DHT22;9687;50.836;12.060;2023-03-14T05:30:40;12.90;94.50
19110;DHT22;9687;50.836;12.060;2023-03-14T05:33:07;12.90;94.70
19110;DHT22;9687;50.836;12.060;2023-03-14T05:35:35;12.90;94.30
19110;DHT22;9687;50.836;12.060;2023-03-14T05:38:04;12.90;94.40
19110;DHT22;9687;50.836;12.060;2023-03-14T05:40:31;12.90;94.40
19110;DHT22;9687;50.836;12.060;2023-03-14T05:42:58;12.90;94.30
19110;DHT22;9687;50.836;12.060;2023-03-14T05:45:25;12.90;94.30
19110;DHT22;9687;50.836;12.060;2023-03-14T05:47:53;12.90;94.30
19110;DHT22;9687;50.836;12.060;2023-03-14T05:50:21;12.90;94.30
19110;DHT22;9687;50.836;12.060;2023-03-14T05:52:48;12.90;94.30
19110;DHT22;9687;50.836;12.060;2023-03-14T05:55:17;12.90;94.30
19110;DHT22;9687;50.836;12.060;2023-03-14T05:57:44;12.90;94.20
19110;DHT22;9687;50.836;12.060;2023-03-14T06:00:12;12.90;94.00
19110;DHT22;9687;50.836;12.060;2023-03-14T06:02:39;12.90;94.00
19110;DHT22;9687;50.836;12.060;2023-03-14T06:05:07;12.90;93.70
19110;DHT22;9687;50.836;12.060;2023-03-14T06:07:34;13.00;93.80
19110;DHT22;9687;50.836;12.060;2023-03-14T06:10:01;12.90;93.80
19110;DHT22;9687;50.836;12.060;2023-03-14T06:12:31;12.80;93.60
19110;DHT22;9687;50.836;12.060;2023-03-14T06:14:58;12.90;93.50
19110;DHT22;9687;50.836;12.060;2023-03-14T06:17:26;13.00;93.70
19110;DHT22;9687;50.836;12.060;2023-03-14T06:19:53;12.90;93.60
19110;DHT22;9687;50.836;12.060;2023-03-14T06:22:20;12.90;93.50
19110;DHT22;9687;50.836;12.060;2023-03-14T06:24:47;12.90;93.40
19110;DHT22;9687;50.836;12.060;2023-03-14T06:27:15;13.00;93.40
19110;DHT22;9687;50.836;12.060;2023-03-14T06:29:44;12.90;93.30
19110;DHT22;9687;50.836;12.060;2023-03-14T06:32:11;13.00;93.40
19110;DHT22;9687;50.836;12.060;2023-03-14T06:34:39;13.00;93.30
19110;DHT22;9687;50.836;12.060;2023-03-14T06:37:06;13.00;93.40
19110;DHT22;9687;50.836;12.060;2023-03-14T06:39:33;13.00;93.30
19110;DHT22;9687;50.836;12.060;2023-03-14T06:42:01;13.00;93.40
19110;DHT22;9687;50.836;12.060;2023-03-14T06:44:28;13.00;93.30
19110;DHT22;9687;50.836;12.060;2023-03-14T06:46:57;13.10;93.40
19110;DHT22;9687;50.836;12.060;2023-03-14T06:49:24;13.10;93.30
19110;DHT22;9687;50.836;12.060;2023-03-14T06:51:52;13.10;93.20
19110;DHT22;9687;50.836;12.060;2023-03-14T06:54:19;13.10;93.10
19110;DHT22;9687;50.836;12.060;2023-03-14T06:56:46;13.10;93.10
19110;DHT22;9687;50.836;12.060;2023-03-14T06:59:14;13.10;93.00
19110;DHT22;9687;50.836;12.060;2023-03-14T07:01:41;13.10;93.10
19110;DHT22;9687;50.836;12.060;2023-03-14T07:04:11;13.10;93.10
19110;DHT22;9687;50.836;12.060;2023-03-14T07:06:39;13.10;93.00
19110;DHT22;9687;50.836;12.060;2023-03-14T07:09:11;13.10;92.90
19110;DHT22;9687;50.836;12.060;2023-03-14T07:11:40;13.10;93.00
19110;DHT22;9687;50.836;12.060;2023-03-14T07:14:08;13.20;92.90
19110;DHT22;9687;50.836;12.060;2023-03-14T07:16:37;13.20;92.70
19110;DHT22;9687;50.836;12.060;2023-03-14T07:19:06;13.20;92.60
19110;DHT22;9687;50.836;12.060;2023-03-14T07:21:40;13.20;92.60
19110;DHT22;9687;50.836;12.060;2023-03-14T07:24:09;13.20;92.30
19110;DHT22;9687;50.836;12.060;2023-03-14T07:26:38;13.20;92.50
19110;DHT22;9687;50.836;12.060;2023-03-14T07:29:06;13.30;92.30
19110;DHT22;9687;50.836;12.060;2023-03-14T07:31:34;13.30;92.30
19110;DHT22;9687;50.836;12.060;2023-03-14T07:34:01;13.30;92.20
19110;DHT22;9687;50.836;12.060;2023-03-14T07:36:29;13.40;92.10
19110;DHT22;9687;50.836;12.060;2023-03-14T07:38:57;13.40;91.80
19110;DHT22;9687;50.836;12.060;2023-03-14T07:41:24;13.40;91.80
19110;DHT22;9687;50.836;12.060;2023-03-14T07:43:52;13.50;91.90
19110;DHT22;9687;50.836;12.060;2023-03-14T07:46:20;13.50;91.80
19110;DHT22;9687;50.836;12.060;2023-03-14T07:48:47;13.50;91.70
19110;DHT22;9687;50.836;12.060;2023-03-14T07:51:14;13.50;91.30
19110;DHT22;9687;50.836;12.060;2023-03-14T07:53:41;13.50;91.00
19110;DHT22;9687;50.836;12.060;2023-03-14T07:56:11;13.50;91.10
19110;DHT22;9687;50.836;12.060;2023-03-14T07:58:38;13.50;91.20
19110;DHT22;9687;50.836;12.060;2023-03-14T08:01:06;13.60;91.10
19110;DHT22;9687;50.836;12.060;2023-03-14T08:03:33;13.60;91.20
19110;DHT22;9687;50.836;12.060;2023-03-14T08:06:00;13.60;91.20
19110;DHT22;9687;50.836;12.060;2023-03-14T08:08:28;13.70;91.20
19110;DHT22;9687;50.836;12.060;2023-03-14T08:10:55;13.70;91.10
19110;DHT22;9687;50.836;12.060;2023-03-14T08:13:24;13.70;91.10
19110;DHT22;9687;50.836;12.060;2023-03-14T08:15:51;13.70;90.90
19110;DHT22;9687;50.836;12.060;2023-03-14T08:18:19;13.70;90.70
19110;DHT22;9687;50.836;12.060;2023-03-14T08:20:46;13.70;90.80
19110;DHT22;9687;50.836;12.060;2023-03-14T08:23:13;13.70;90.80
19110;DHT22;9687;50.836;12.060;2023-03-14T08:25:40;13.70;90.80
19110;DHT22;9687;50.836;12.060;2023-03-14T08:28:07;13.70;90.70
19110;DHT22;9687;50.836;12.060;2023-03-14T08:30:36;13.70;90.70
19110;DHT22;9687;50.836;12.060;2023-03-14T08:33:04;13.70;90.70
19110;DHT22;9687;50.836;12.060;2023-03-14T08:35:31;13.70;90.60
19110;DHT22;9687;50.836;12.060;2023-03-14T08:37:59;13.70;90.60
19110;DHT22;9687;50.836;12.060;2023-03-14T08:40:26;13.70;90.60
19110;DHT22;9687;50.836;12.060;2023-03-14T08:42:54;13.70;90.60
19110;DHT22;9687;50.836;12.060;2023-03-14T08:45:21;13.70;90.10
19110;DHT22;9687;50.836;12.060;2023-03-14T08:47:52;13.70;90.30
19110;DHT22;9687;50.836;12.060;2023-03-14T08:50:19;13.70;90.30
19110;DHT22;9687;50.836;12.060;2023-03-14T08:52:46;13.70;90.50
19110;DHT22;9687;50.836;12.060;2023-03-14T08:55:14;13.70;90.30
19110;DHT22;9687;50.836;12.060;2023-03-14T08:57:41;13.70;90.30
19110;DHT22;9687;50.836;12.060;2023-03-14T09:00:09;13.70;90.10
19110;DHT22;9687;50.836;12.060;2023-03-14T09:02:40;13.70;90.00
19110;DHT22;9687;50.836;12.060;2023-03-14T09:05:10;13.70;90.10
19110;DHT22;9687;50.836;12.060;2023-03-14T09:07:37;13.70;90.00
19110;DHT22;9687;50.836;12.060;2023-03-14T09:10:09;13.70;90.00
19110;DHT22;9687;50.836;12.060;2023-03-14T09:12:36;13.70;90.10
19110;DHT22;9687;50.836;12.060;2023-03-14T09:15:04;13.70;90.10
19110;DHT22;9687;50.836;12.060;2023-03-14T09:17:33;13.80;90.30
19110;DHT22;9687;50.836;12.060;2023-03-14T09:20:02;13.80;90.00
19110;DHT22;9687;50.836;12.060;2023-03-14T09:22:38;13.80;90.00
19110;DHT22;9687;50.836;12.060;2023-03-14T09:25:06;13.80;90.00
19110;DHT22;9687;50.836;12.060;2023-03-14T09:27:37;13.90;89.50
19110;DHT22;9687;50.836;12.060;2023-03-14T09:30:09;13.90;89.60
19110;DHT22;9687;50.836;12.060;2023-03-14T09:32:37;13.90;89.50
19110;DHT22;9687;50.836;12.060;2023-03-14T09:35:06;13.90;89.30
19110;DHT22;9687;50.836;12.060;2023-03-14T09:37:35;13.90;89.10
19110;DHT22;9687;50.836;12.060;2023-03-14T09:40:03;13.90;88.90
19110;DHT22;9687;50.836;12.060;2023-03-14T09:42:35;13.90;89.00
19110;DHT22;9687;50.836;12.060;2023-03-14T09:45:06;13.90;89.80
19110;DHT22;9687;50.836;12.060;2023-03-14T09:47:33;14.10;90.20
19110;DHT22;9687;50.836;12.060;2023-03-14T09:50:01;14.40;90.30
19110;DHT22;9687;50.836;12.060;2023-03-14T09:52:30;14.70;90.00
19110;DHT22;9687;50.836;12.060;2023-03-14T09:55:00;15.00;88.30
19110;DHT22;9687;50.836;12.060;2023-03-14T09:57:29;15.20;87.00
19110;DHT22;9687;50.836;12.060;2023-03-14T10:00:00;15.30;86.40
19110;DHT22;9687;50.836;12.060;2023-03-14T10:02:32;15.50;85.60
19110;DHT22;9687;50.836;12.060;2023-03-14T10:05:00;15.60;85.10
19110;DHT22;9687;50.836;12.060;2023-03-14T10:07:28;15.70;83.80
19110;DHT22;9687;50.836;12.060;2023-03-14T10:09:56;15.80;83.80
19110;DHT22;9687;50.836;12.060;2023-03-14T10:12:31;15.80;84.00
19110;DHT22;9687;50.836;12.060;2023-03-14T10:15:01;15.80;84.00
19110;DHT22;9687;50.836;12.060;2023-03-14T10:17:29;15.90;83.20
19110;DHT22;9687;50.836;12.060;2023-03-14T10:19:59;15.90;82.50
19110;DHT22;9687;50.836;12.060;2023-03-14T10:22:27;15.80;82.10
19110;DHT22;9687;50.836;12.060;2023-03-14T10:24:56;15.80;81.60
19110;DHT22;9687;50.836;12.060;2023-03-14T10:27:27;15.80;81.90
19110;DHT22;9687;50.836;12.060;2023-03-14T10:29:59;15.80;80.80
19110;DHT22;9687;50.836;12.060;2023-03-14T10:32:32;15.90;81.80
19110;DHT22;9687;50.836;12.060;2023-03-14T10:35:05;15.90;81.70
19110;DHT22;9687;50.836;12.060;2023-03-14T10:37:32;16.00;81.80
19110;DHT22;9687;50.836;12.060;2023-03-14T10:40:00;16.10;81.10
19110;DHT22;9687;50.836;12.060;2023-03-14T10:42:31;16.10;81.30
19110;DHT22;9687;50.836;12.060;2023-03-14T10:45:02;16.20;81.60
19110;DHT22;9687;50.836;12.060;2023-03-14T10:47:31;16.20;81.50
19110;DHT22;9687;50.836;12.060;2023-03-14T10:50:18;16.20;80.90
19110;DHT22;9687;50.836;12.060;2023-03-14T10:52:48;16.20;81.00
19110;DHT22;9687;50.836;12.060;2023-03-14T10:55:16;16.20;81.00
19110;DHT22;9687;50.836;12.060;2023-03-14T10:57:43;16.10;80.50
19110;DHT22;9687;50.836;12.060;2023-03-14T11:00:15;16.00;80.80
19110;DHT22;9687;50.836;12.060;2023-03-14T11:02:49;15.90;80.90
19110;DHT22;9687;50.836;12.060;2023-03-14T11:05:27;15.80;80.80
19110;DHT22;9687;50.836;12.060;2023-03-14T11:08:00;15.80;81.30
19110;DHT22;9687;50.836;12.060;2023-03-14T11:10:31;15.70;81.40
19110;DHT22;9687;50.836;12.060;2023-03-14T11:13:00;15.60;82.10
19110;DHT22;9687;50.836;12.060;2023-03-14T11:15:34;15.50;81.50
19110;DHT22;9687;50.836;12.060;2023-03-14T11:18:19;15.40;81.60
19110;DHT22;9687;50.836;12.060;2023-03-14T11:20:50;15.40;81.80
19110;DHT22;9687;50.836;12.060;2023-03-14T11:23:20;15.30;82.20
19110;DHT22;9687;50.836;12.060;2023-03-14T11:25:49;15.30;82.70
19110;DHT22;9687;50.836;12.060;2023-03-14T11:28:20;15.30;82.50
19110;DHT22;9687;50.836;12.060;2023-03-14T11:30:52;15.30;82.90
19110;DHT22;9687;50.836;12.060;2023-03-14T11:33:21;15.30;83.00
19110;DHT22;9687;50.836;12.060;2023-03-14T11:35:53;15.30;83.00
19110;DHT22;9687;50.836;12.060;2023-03-14T11:38:27;15.40;82.20
19110;DHT22;9687;50.836;12.060;2023-03-14T11:40:58;15.40;82.50
19110;DHT22;9687;50.836;12.060;2023-03-14T11:43:28;15.40;82.30
19110;DHT22;9687;50.836;12.060;2023-03-14T11:46:01;15.40;82.00
19110;DHT22;9687;50.836;12.060;2023-03-14T11:48:33;15.40;82.10
19110;DHT22;9687;50.836;12.060;2023-03-14T11:51:02;15.40;81.70
19110;DHT22;9687;50.836;12.060;2023-03-14T11:53:35;15.40;82.00
19110;DHT22;9687;50.836;12.060;2023-03-14T11:56:08;15.30;82.70
19110;DHT22;9687;50.836;12.060;2023-03-14T11:58:50;15.60;83.20
19110;DHT22;9687;50.836;12.060;2023-03-14T12:01:20;15.80;83.50
19110;DHT22;9687;50.836;12.060;2023-03-14T12:03:52;16.10;83.30
19110;DHT22;9687;50.836;12.060;2023-03-14T12:06:23;16.30;81.40
19110;DHT22;9687;50.836;12.060;2023-03-14T12:08:52;16.50;80.50
19110;DHT22;9687;50.836;12.060;2023-03-14T12:11:30;16.50;80.30
19110;DHT22;9687;50.836;12.060;2023-03-14T12:13:58;16.40;80.00
19110;DHT22;9687;50.836;12.060;2023-03-14T12:16:36;16.40;79.70
19110;DHT22;9687;50.836;12.060;2023-03-14T12:22:05;16.30;78.80
19110;DHT22;9687;50.836;12.060;2023-03-14T12:24:35;16.30;78.80
19110;DHT22;9687;50.836;12.060;2023-03-14T12:27:04;16.20;78.60
19110;DHT22;9687;50.836;12.060;2023-03-14T12:29:31;16.20;78.70
19110;DHT22;9687;50.836;12.060;2023-03-14T12:32:20;16.20;79.20
19110;DHT22;9687;50.836;12.060;2023-03-14T12:34:48;16.20;79.40
19110;DHT22;9687;50.836;12.060;2023-03-14T12:40:11;16.00;79.10
19110;DHT22;9687;50.836;12.060;2023-03-14T12:42:43;16.00;79.00
19110;DHT22;9687;50.836;12.060;2023-03-14T12:45:21;15.90;79.20
19110;DHT22;9687;50.836;12.060;2023-03-14T12:47:53;15.80;79.30
19110;DHT22;9687;50.836;12.060;2023-03-14T12:50:25;15.70;79.70
19110;DHT22;9687;50.836;12.060;2023-03-14T12:53:33;15.60;79.40
19110;DHT22;9687;50.836;12.060;2023-03-14T12:56:05;15.60;80.40
19110;DHT22;9687;50.836;12.060;2023-03-14T12:58:36;15.70;80.10
19110;DHT22;9687;50.836;12.060;2023-03-14T13:01:05;15.80;80.50
19110;DHT22;9687;50.836;12.060;2023-03-14T13:03:39;15.80;80.10
19110;DHT22;9687;50.836;12.060;2023-03-14T13:06:09;15.80;80.20
19110;DHT22;9687;50.836;12.060;2023-03-14T13:08:38;15.80;80.00
19110;DHT22;9687;50.836;12.060;2023-03-14T13:11:08;15.80;80.10
19110;DHT22;9687;50.836;12.060;2023-03-14T13:13:37;15.80;80.10
19110;DHT22;9687;50.836;12.060;2023-03-14T13:16:09;15.80;80.20
19110;DHT22;9687;50.836;12.060;2023-03-14T13:18:40;15.80;80.40
19110;DHT22;9687;50.836;12.060;2023-03-14T13:21:09;15.90;80.60
19110;DHT22;9687;50.836;12.060;2023-03-14T13:23:38;15.90;80.40
19110;DHT22;9687;50.836;12.060;2023-03-14T13:26:06;15.90;80.10
19110;DHT22;9687;50.836;12.060;2023-03-14T13:28:37;16.00;80.20
19110;DHT22;9687;50.836;12.060;2023-03-14T13:31:05;16.00;79.60
19110;DHT22;9687;50.836;12.060;2023-03-14T13:33:33;16.00;79.40
19110;DHT22;9687;50.836;12.060;2023-03-14T13:36:04;16.00;79.10
19110;DHT22;9687;50.836;12.060;2023-03-14T13:38:34;16.00;79.20
19110;DHT22;9687;50.836;12.060;2023-03-14T13:41:04;16.00;79.00
19110;DHT22;9687;50.836;12.060;2023-03-14T13:43:32;15.90;79.30
19110;DHT22;9687;50.836;12.060;2023-03-14T13:46:03;15.90;79.50
19110;DHT22;9687;50.836;12.060;2023-03-14T13:48:33;15.90;79.90
19110;DHT22;9687;50.836;12.060;2023-03-14T13:51:03;15.90;79.10
19110;DHT22;9687;50.836;12.060;2023-03-14T13:53:31;15.90;79.20
19110;DHT22;9687;50.836;12.060;2023-03-14T13:56:01;15.90;78.60
19110;DHT22;9687;50.836;12.060;2023-03-14T13:58:32;15.80;78.30
19110;DHT22;9687;50.836;12.060;2023-03-14T14:01:03;15.70;77.90
19110;DHT22;9687;50.836;12.060;2023-03-14T14:03:36;15.70;77.70
19110;DHT22;9687;50.836;12.060;2023-03-14T14:06:10;15.60;78.80
19110;DHT22;9687;50.836;12.060;2023-03-14T14:08:41;15.60;78.20
19110;DHT22;9687;50.836;12.060;2023-03-14T14:11:13;15.60;78.20
19110;DHT22;9687;50.836;12.060;2023-03-14T14:13:47;15.50;78.60
19110;DHT22;9687;50.836;12.060;2023-03-14T14:16:16;15.50;78.60
19110;DHT22;9687;50.836;12.060;2023-03-14T14:18:46;15.50;78.80
19110;DHT22;9687;50.836;12.060;2023-03-14T14:21:17;15.40;79.20
19110;DHT22;9687;50.836;12.060;2023-03-14T14:23:45;15.40;79.50
19110;DHT22;9687;50.836;12.060;2023-03-14T14:26:19;15.40;79.70
19110;DHT22;9687;50.836;12.060;2023-03-14T14:28:47;15.30;80.10
19110;DHT22;9687;50.836;12.060;2023-03-14T14:31:26;15.30;80.50
19110;DHT22;9687;50.836;12.060;2023-03-14T14:33:55;15.20;81.00
19110;DHT22;9687;50.836;12.060;2023-03-14T14:36:25;15.20;81.40
19110;DHT22;9687;50.836;12.060;2023-03-14T14:38:57;15.10;81.90
19110;DHT22;9687;50.836;12.060;2023-03-14T14:41:33;15.00;82.20
19110;DHT22;9687;50.836;12.060;2023-03-14T14:44:04;15.00;82.60
19110;DHT22;9687;50.836;12.060;2023-03-14T14:46:32;15.00;82.80
19110;DHT22;9687;50.836;12.060;2023-03-14T14:49:05;15.00;83.00
19110;DHT22;9687;50.836;12.060;2023-03-14T14:51:38;14.90;83.10
19110;DHT22;9687;50.836;12.060;2023-03-14T14:54:11;14.90;83.40
19110;DHT22;9687;50.836;12.060;2023-03-14T14:56:38;14.80;83.80
19110;DHT22;9687;50.836;12.060;2023-03-14T14:59:06;14.80;84.20
19110;DHT22;9687;50.836;12.060;2023-03-14T15:01:44;14.80;84.70
19110;DHT22;9687;50.836;12.060;2023-03-14T15:04:13;14.70;85.10
19110;DHT22;9687;50.836;12.060;2023-03-14T15:06:45;14.80;85.60
19110;DHT22;9687;50.836;12.060;2023-03-14T15:09:15;14.60;85.90
19110;DHT22;9687;50.836;12.060;2023-03-14T15:11:43;14.60;86.40
19110;DHT22;9687;50.836;12.060;2023-03-14T15:14:11;14.50;87.20
19110;DHT22;9687;50.836;12.060;2023-03-14T15:16:39;14.50;87.80
19110;DHT22;9687;50.836;12.060;2023-03-14T15:19:15;14.50;88.00
19110;DHT22;9687;50.836;12.060;2023-03-14T15:21:51;14.50;88.40
19110;DHT22;9687;50.836;12.060;2023-03-14T15:24:20;14.40;88.40
19110;DHT22;9687;50.836;12.060;2023-03-14T15:26:49;14.40;88.80
19110;DHT22;9687;50.836;12.060;2023-03-14T15:29:16;14.40;89.20
19110;DHT22;9687;50.836;12.060;2023-03-14T15:31:44;14.40;89.70
19110;DHT22;9687;50.836;12.060;2023-03-14T15:34:11;14.40;89.50
19110;DHT22;9687;50.836;12.060;2023-03-14T15:36:39;14.20;88.00
19110;DHT22;9687;50.836;12.060;2023-03-14T15:39:09;14.20;87.00
19110;DHT22;9687;50.836;12.060;2023-03-14T15:41:36;14.00;86.50
19110;DHT22;9687;50.836;12.060;2023-03-14T15:44:04;14.00;86.80
19110;DHT22;9687;50.836;12.060;2023-03-14T15:46:31;13.90;86.70
19110;DHT22;9687;50.836;12.060;2023-03-14T15:48:58;13.80;86.50
19110;DHT22;9687;50.836;12.060;2023-03-14T15:51:26;13.70;86.70